Flight Track Log - Related Links

Times and Time Zones

All times are in EDT time to prevent confusion due to time zone crossing. See the N201DA flight status page for this flight to view local times or setup timezone preferences in your user account.

Time Position Orientation Groundspeed Altitude Reporting Facility
EDT Latitude Longitude Course Direction KTS MPH feet Rate Location/Type
Mon 09:03:12 AM 42.9333 -78.7167 180° South 63 72 1,100  Level Buffalo TRACON
Mon 09:03:54 AM 42.9167 -78.7167 180° South 75 86 1,600 588 Climbing Buffalo TRACON
Mon 09:04:54 AM 42.9000 -78.7000 144° Southeast 90 104 2,100 550 Climbing Buffalo TRACON
Mon 09:05:54 AM 42.8833 -78.6833 144° Southeast 98 113 2,700 650 Climbing Buffalo TRACON
Mon 09:06:54 AM 42.8500 -78.7000 200° South 96 110 3,400 579 Climbing Buffalo TRACON
Mon 09:07:48 AM 42.8333 -78.7167 216° Southwest 96 110 3,800 494 Climbing Buffalo TRACON
Mon 09:08:19 AM 42.8181 -78.7208 191° South 95 109 4,100 452 Climbing Cleveland Center
Mon 09:09:21 AM 42.7894 -78.7419 208° Southwest 108 124 4,500 435 Climbing Cleveland Center
Mon 09:10:23 AM 42.7594 -78.7603 204° Southwest 111 128 5,000 484 Climbing Cleveland Center
Mon 09:11:25 AM 42.7283 -78.7764 201° Southwest 112 129 5,500 435 Climbing Cleveland Center
Mon 09:12:27 AM 42.7003 -78.7936 204° Southwest 112 129 5,900 387 Climbing Cleveland Center
Mon 09:13:29 AM 42.6706 -78.8133 206° Southwest 114 131 6,300 387 Climbing Cleveland Center
Mon 09:14:31 AM 42.6392 -78.8314 203° Southwest 118 136 6,700 339 Climbing Cleveland Center
Mon 09:15:33 AM 42.6081 -78.8542 208° Southwest 118 136 7,000 290 Climbing Cleveland Center
Mon 09:16:35 AM 42.5739 -78.8764 206° Southwest 127 146 7,300 336 Climbing Cleveland Center
Mon 09:17:38 AM 42.5422 -78.8967 205° Southwest 125 144 7,700 336 Climbing Cleveland Center
Mon 09:18:40 AM 42.5111 -78.9167 205° Southwest 122 140 8,000 290 Climbing Cleveland Center
Mon 09:19:42 AM 42.4814 -78.9361 206° Southwest 123 142 8,300 290 Climbing Cleveland Center
Mon 09:20:44 AM 42.4494 -78.9597 209° Southwest 123 142 8,600 242 Climbing Cleveland Center
Mon 09:21:46 AM 42.4189 -78.9811 207° Southwest 122 140 8,800 242 Climbing Cleveland Center
Mon 09:22:48 AM 42.3867 -79.0006 204° Southwest 121 139 9,100 242 Climbing Cleveland Center
Mon 09:23:50 AM 42.3550 -79.0161 200° South 119 137 9,300 194 Climbing Cleveland Center
Mon 09:24:52 AM 42.3236 -79.0394 209° Southwest 120 138 9,500 194 Climbing Cleveland Center
Mon 09:25:54 AM 42.2911 -79.0567 201° Southwest 120 138 9,700 144 Climbing Cleveland Center
Mon 09:26:57 AM 42.2606 -79.0694 197° South 122 140 9,800 144 Climbing Cleveland Center
Mon 09:27:59 AM 42.2281 -79.0900 205° Southwest 123 142 10,000 97 Climbing Cleveland Center
Mon 09:29:01 AM 42.1961 -79.1083 203° Southwest 121 139 10,000  Level Cleveland Center
Mon 09:30:03 AM 42.1636 -79.1292 205° Southwest 122 140 10,000  Level Cleveland Center
Mon 09:31:05 AM 42.1333 -79.1519 209° Southwest 120 138 10,000  Level Cleveland Center
Mon 09:32:07 AM 42.1019 -79.1733 207° Southwest 121 139 10,000  Level Cleveland Center
Mon 09:33:09 AM 42.0700 -79.1972 209° Southwest 123 142 10,000  Level Cleveland Center
Mon 09:34:11 AM 42.0400 -79.2167 206° Southwest 125 144 10,000  Level Cleveland Center
Mon 09:35:13 AM 42.0058 -79.2381 205° Southwest 126 145 10,000 -48 Level Cleveland Center
Mon 09:36:15 AM 41.9725 -79.2564 202° Southwest 126 145 9,900  Descending Cleveland Center
Mon 09:37:17 AM 41.9403 -79.2758 204° Southwest 122 140 10,000 48 Climbing Cleveland Center
Mon 09:38:19 AM 41.9108 -79.2928 203° Southwest 123 142 10,000  Level Cleveland Center
Mon 09:39:21 AM 41.8789 -79.3106 203° Southwest 124 143 10,000  Level Cleveland Center
Mon 09:40:23 AM 41.8428 -79.3336 205° Southwest 122 140 10,000  Level Cleveland Center
Mon 09:41:25 AM 41.8100 -79.3433 192° South 121 139 10,000  Level Cleveland Center
Mon 09:42:27 AM 41.7769 -79.3603 201° Southwest 124 143 10,000  Level Cleveland Center
Mon 09:43:29 AM 41.7503 -79.3883 218° Southwest 124 143 10,000  Level Cleveland Center
Mon 09:44:31 AM 41.7211 -79.4128 212° Southwest 124 143 10,000  Level Cleveland Center
Mon 09:45:33 AM 41.6911 -79.4531 225° Southwest 125 144 10,000  Level Cleveland Center
Mon 09:46:35 AM 41.6694 -79.4903 232° Southwest 128 147 10,000 48 Level Cleveland Center
Mon 09:47:37 AM 41.6453 -79.5267 228° Southwest 129 148 10,100  Climbing Cleveland Center
Mon 09:48:39 AM 41.6206 -79.5625 227° Southwest 132 152 10,000 -48 Descending Cleveland Center
Mon 09:49:41 AM 41.5983 -79.5997 231° Southwest 132 152 10,000  Level Cleveland Center
Mon 09:50:43 AM 41.5717 -79.6419 230° Southwest 129 148 10,000  Level Cleveland Center
Mon 09:51:45 AM 41.5497 -79.6758 229° Southwest 125 144 10,000  Level Cleveland Center
Mon 09:52:47 AM 41.5297 -79.7136 235° Southwest 125 144 10,000 48 Level Cleveland Center
Mon 09:53:49 AM 41.5083 -79.7511 233° Southwest 126 145 10,100  Climbing Cleveland Center
Mon 09:54:51 AM 41.4828 -79.7858 226° Southwest 127 146 10,000 -48 Descending Cleveland Center
Mon 09:55:53 AM 41.4603 -79.8228 231° Southwest 128 147 10,000  Level Cleveland Center
Mon 09:56:55 AM 41.4342 -79.8683 233° Southwest 129 148 10,000  Level Cleveland Center
Mon 09:57:57 AM 41.4164 -79.9097 240° Southwest 129 148 10,000  Level Cleveland Center
Mon 09:58:59 AM 41.3967 -79.9497 237° Southwest 130 150 10,000 48 Level Cleveland Center
Mon 10:00:01 AM 41.3653 -79.9675 203° Southwest 125 144 10,100 48 Climbing Cleveland Center
Mon 10:01:03 AM 41.3311 -79.9792 194° South 128 147 10,100 -97 Level Cleveland Center
Mon 10:02:05 AM 41.2908 -79.9969 198° South 128 147 9,900 -98 Descending Cleveland Center
Mon 10:03:06 AM 41.2561 -80.0114 197° South 129 148 9,900  Level Cleveland Center
Mon 10:04:08 AM 41.2225 -80.0278 200° South 129 148 9,900  Level Cleveland Center
Mon 10:05:10 AM 41.1881 -80.0442 200° South 130 150 9,900  Level Cleveland Center
Mon 10:06:12 AM 41.1536 -80.0583 197° South 130 150 9,900  Level Cleveland Center
Mon 10:07:14 AM 41.1208 -80.0758 202° Southwest 130 150 9,900 48 Level Cleveland Center
Mon 10:08:16 AM 41.0833 -80.1031 209° Southwest 130 150 10,000  Climbing Cleveland Center
Mon 10:09:18 AM 41.0525 -80.1156 197° South 121 139 9,900  Descending Cleveland Center
Mon 10:10:20 AM 41.0239 -80.1389 212° Southwest 121 139 10,000  Climbing Cleveland Center
Mon 10:11:22 AM 40.9931 -80.1536 200° South 120 138 9,900  Descending Cleveland Center
Mon 10:12:24 AM 40.9628 -80.1606 190° South 116 133 10,000 48 Climbing Cleveland Center
Mon 10:13:26 AM 40.9336 -80.1742 199° South 110 127 10,000  Level Cleveland Center
Mon 10:14:27 AM 40.8964 -80.1881 196° South 112 129 10,000 -166 Level Cleveland Center
Mon 10:23:41 AM 40.6258 -80.3175 200° South 128 147 8,300 -195 Descending Indianapolis Center
Mon 10:24:00 AM 40.5877 -80.3066 196° South  Level FlightAware Approximate
Mon 10:24:43 AM 40.5872 -80.3336 198° South 136 157 8,000  Level Indianapolis Center
Mon 10:25:00 AM 40.5560 -80.3221 200° South  Level FlightAware Approximate
Mon 10:25:44 AM 40.5508 -80.3472 196° South 137 158 8,000  Level Indianapolis Center
Mon 10:26:00 AM 40.5243 -80.3375 200° South  Level FlightAware Approximate
Mon 10:26:46 AM 40.5186 -80.3592 196° South 132 152 8,000  Level Indianapolis Center
Mon 10:27:00 AM 40.4925 -80.3530 200° South  Level FlightAware Approximate
Mon 10:27:48 AM 40.4878 -80.3800 207° Southwest 129 148 8,000  Level Indianapolis Center
Mon 10:28:00 AM 40.4608 -80.3684 200° South  Level FlightAware Approximate
Mon 10:28:50 AM 40.4581 -80.3894 194° South 119 137 7,900  Level Indianapolis Center
Mon 10:29:00 AM 40.4291 -80.3838 200° South  Level FlightAware Approximate
Mon 10:29:52 AM 40.4228 -80.4081 202° Southwest 117 135 8,000  Level Indianapolis Center
Mon 10:30:54 AM 40.3911 -80.4242 201° Southwest 117 135 8,000  Level Indianapolis Center
Mon 10:31:56 AM 40.3586 -80.4378 198° South 117 135 8,000  Level Indianapolis Center
Mon 10:32:58 AM 40.3297 -80.4472 194° South 117 135 8,000  Level Indianapolis Center
Mon 10:34:00 AM 40.3022 -80.4628 203° Southwest 111 128 8,000  Level Indianapolis Center
Mon 10:35:02 AM 40.2692 -80.4792 201° Southwest 113 130 8,000  Level Indianapolis Center
Mon 10:36:03 AM 40.2392 -80.4911 197° South 116 133 8,000  Level Indianapolis Center
Mon 10:37:05 AM 40.2100 -80.5064 202° Southwest 115 132 8,000  Level Indianapolis Center
Mon 10:38:07 AM 40.1728 -80.5211 197° South 116 133 8,000  Level Indianapolis Center
Mon 10:39:09 AM 40.1422 -80.5358 200° South 117 135 8,000  Level Indianapolis Center
Mon 10:40:29 AM 40.1036 -80.5544 200° South 117 135 8,000  Level Cleveland Center
Mon 10:41:31 AM 40.0722 -80.5672 197° South 117 135 8,000  Level Cleveland Center
Mon 10:42:34 AM 40.0425 -80.5822 201° Southwest 117 135 8,000  Level Cleveland Center
Mon 10:43:35 AM 40.0042 -80.6000 200° South 119 137 8,000  Level Cleveland Center
Mon 10:44:37 AM 39.9711 -80.6161 200° South 121 139 8,000  Level Cleveland Center
Mon 10:45:39 AM 39.9408 -80.6328 203° Southwest 121 139 8,000  Level Cleveland Center
Mon 10:46:42 AM 39.9103 -80.6472 200° South 121 139 8,000  Level Cleveland Center
Mon 10:47:44 AM 39.8775 -80.6583 195° South 120 138 8,000 48 Level Cleveland Center
Mon 10:48:46 AM 39.8436 -80.6725 198° South 124 143 8,100 48 Climbing Cleveland Center
Mon 10:49:48 AM 39.8056 -80.6903 200° South 124 143 8,100  Level Cleveland Center
Mon 10:50:50 AM 39.7739 -80.7022 196° South 124 143 8,100 -48 Level Cleveland Center
Mon 10:51:52 AM 39.7422 -80.7131 195° South 122 140 8,000 -48 Descending Cleveland Center
Mon 10:52:54 AM 39.7142 -80.7267 200° South 113 130 8,000  Level Cleveland Center
Mon 10:53:56 AM 39.6853 -80.7428 203° Southwest 113 130 8,000 36 Level Cleveland Center
Mon 10:55:39 AM 39.6306 -80.7667 199° South 113 130 8,100 36 Climbing Indianapolis Center
Mon 10:56:41 AM 39.6014 -80.7808 201° Southwest 113 130 8,100 -49 Level Indianapolis Center
Mon 10:57:42 AM 39.5711 -80.7958 201° Southwest 113 130 8,000 -49 Descending Indianapolis Center
Mon 10:58:44 AM 39.5431 -80.8100 201° Southwest 113 130 8,000 48 Level Indianapolis Center
Mon 10:59:46 AM 39.5136 -80.8247 201° Southwest 113 130 8,100 48 Climbing Indianapolis Center
Mon 11:00:48 AM 39.4828 -80.8389 200° South 113 130 8,100 -48 Level Indianapolis Center
Mon 11:01:50 AM 39.4511 -80.8511 197° South 113 130 8,000 -48 Descending Indianapolis Center
Mon 11:02:52 AM 39.4156 -80.8650 197° South 113 130 8,000  Level Indianapolis Center
Mon 11:03:54 AM 39.3833 -80.8822 202° Southwest 117 135 8,000 49 Level Indianapolis Center
Mon 11:04:55 AM 39.3528 -80.8967 200° South 117 135 8,100  Climbing Indianapolis Center
Mon 11:05:57 AM 39.3228 -80.9122 202° Southwest 117 135 8,000 -48 Descending Indianapolis Center
Mon 11:06:59 AM 39.2903 -80.9214 192° South 117 135 8,000 48 Level Indianapolis Center
Mon 11:08:01 AM 39.2578 -80.9319 194° South 117 135 8,100  Climbing Indianapolis Center
Mon 11:09:02 AM 39.2261 -80.9428 195° South 117 135 8,000 -49 Descending Indianapolis Center
Mon 11:10:04 AM 39.1897 -80.9583 198° South 117 135 8,000  Level Indianapolis Center
Mon 11:11:06 AM 39.1608 -80.9736 202° Southwest 117 135 8,000  Level Indianapolis Center
Mon 11:12:08 AM 39.1333 -80.9894 204° Southwest 116 133 8,000 49 Level Indianapolis Center
Mon 11:13:09 AM 39.1050 -81.0039 202° Southwest 114 131 8,100 -50 Climbing Indianapolis Center
Mon 11:14:07 AM 39.0792 -81.0156 199° South 113 130 7,900 -49 Descending Indianapolis Center
Mon 11:15:12 AM 39.0478 -81.0272 196° South 111 128 8,000 94 Climbing Indianapolis Center
Mon 11:16:14 AM 39.0208 -81.0397 200° South 109 125 8,100 48 Climbing Indianapolis Center
Mon 11:17:16 AM 38.9922 -81.0525 199° South 108 124 8,100 -53 Level Indianapolis Center
Mon 11:18:07 AM 38.9686 -81.0633 200° South 113 130 8,000  Descending Indianapolis Center
Mon 11:18:17 AM 38.9644 -81.0631 177° South 108 124 8,100 83 Climbing Indianapolis Center
Mon 11:19:19 AM 38.9308 -81.0789 200° South 108 124 8,100  Level Indianapolis Center
Mon 11:20:20 AM 38.9022 -81.0933 201° Southwest 108 124 8,100 -49 Level Indianapolis Center
Mon 11:21:22 AM 38.8739 -81.1078 202° Southwest 108 124 8,000 -48 Descending Indianapolis Center
Mon 11:22:24 AM 38.8439 -81.1194 197° South 108 124 8,000  Level Indianapolis Center
Mon 11:22:56 AM 38.8250 -81.1283 200° South 117 135 8,000  Level Indianapolis Center
Mon 11:23:25 AM 38.8128 -81.1339 200° South 113 130 8,000  Level Indianapolis Center
Mon 11:24:27 AM 38.7822 -81.1461 197° South 114 131 8,000  Level Indianapolis Center
Mon 11:25:28 AM 38.7517 -81.1603 200° South 115 132 8,000  Level Indianapolis Center
Mon 11:26:30 AM 38.7203 -81.1736 198° South 115 132 8,000 68 Level Indianapolis Center
Mon 11:26:56 AM 38.7036 -81.1822 202° Southwest 119 137 8,100 97 Climbing Indianapolis Center
Mon 11:27:32 AM 38.6889 -81.1897 202° Southwest 117 135 8,100 -62 Level Indianapolis Center
Mon 11:28:33 AM 38.6500 -81.2050 197° South 118 136 8,000 -49 Descending Indianapolis Center
Mon 11:29:35 AM 38.6183 -81.2192 199° South 118 136 8,000  Level Indianapolis Center
Mon 11:30:36 AM 38.5858 -81.2322 197° South 119 137 8,000  Level Indianapolis Center
Mon 11:30:57 AM 38.5736 -81.2350 190° South 127 146 8,000  Level Indianapolis Center
Mon 11:31:38 AM 38.5536 -81.2472 206° Southwest 119 137 8,000  Level Indianapolis Center
Mon 11:32:39 AM 38.5203 -81.2583 195° South 120 138 8,000  Level Indianapolis Center
Mon 11:33:41 AM 38.4872 -81.2717 198° South 121 139 8,000  Level Indianapolis Center
Mon 11:34:42 AM 38.4542 -81.2842 196° South 122 140 8,000  Level Indianapolis Center
Mon 11:34:58 AM 38.4436 -81.2875 194° South 122 140 8,000  Level Indianapolis Center
Mon 11:35:44 AM 38.4236 -81.3019 210° Southwest 122 140 8,000  Level Indianapolis Center
Mon 11:36:46 AM 38.3914 -81.3133 195° South 121 139 8,000 49 Level Indianapolis Center
Mon 11:37:47 AM 38.3594 -81.3275 199° South 121 139 8,100  Climbing Indianapolis Center
Mon 11:38:34 AM 38.3286 -81.3367 193° South 123 142 8,000 -97 Descending Indianapolis Center
Mon 11:38:49 AM 38.3211 -81.3425 211° Southwest 121 139 8,000  Level Indianapolis Center
Mon 11:39:50 AM 38.2892 -81.3522 193° South 121 139 8,000 -49 Level Indianapolis Center
Mon 11:40:52 AM 38.2586 -81.3661 200° South 120 138 7,900  Descending Indianapolis Center
Mon 11:41:54 AM 38.2283 -81.3797 199° South 118 136 8,000 58 Climbing Indianapolis Center
Mon 11:42:35 AM 38.2028 -81.3892 196° South 125 144 8,000  Level Indianapolis Center
Mon 11:42:55 AM 38.1981 -81.3939 218° Southwest 117 135 8,000  Level Indianapolis Center
Mon 11:43:56 AM 38.1683 -81.4072 199° South 117 135 8,000  Level Indianapolis Center
Mon 11:44:58 AM 38.1386 -81.4208 200° South 115 132 8,000  Level Indianapolis Center
Mon 11:45:59 AM 38.1078 -81.4350 200° South 115 132 8,000  Level Indianapolis Center
Mon 11:46:35 AM 38.0831 -81.4428 194° South 115 132 8,000  Level Indianapolis Center
Mon 11:47:01 AM 38.0772 -81.4458 202° Southwest 115 132 8,000  Level Indianapolis Center
Mon 11:48:02 AM 38.0383 -81.4597 196° South 116 133 8,000  Level Indianapolis Center
Mon 11:49:04 AM 38.0083 -81.4747 202° Southwest 116 133 8,000  Level Indianapolis Center
Mon 11:50:05 AM 37.9778 -81.4942 207° Southwest 117 135 8,000  Level Indianapolis Center
Mon 11:51:07 AM 37.9444 -81.5058 195° South 120 138 8,000 -48 Level Indianapolis Center
Mon 11:52:09 AM 37.9125 -81.5181 197° South 121 139 7,900 -49 Descending Indianapolis Center
Mon 11:53:10 AM 37.8792 -81.5308 197° South 121 139 7,900  Level Indianapolis Center
Mon 11:54:12 AM 37.8486 -81.5439 199° South 117 135 7,900 -49 Level Indianapolis Center
Mon 11:55:13 AM 37.8142 -81.5550 194° South 119 137 7,800 -49 Descending Indianapolis Center
Mon 11:56:15 AM 37.7811 -81.5647 193° South 119 137 7,800 49 Level Indianapolis Center
Mon 11:57:16 AM 37.7497 -81.5786 199° South 119 137 7,900 98 Climbing Indianapolis Center
Mon 11:58:18 AM 37.7161 -81.5975 204° Southwest 118 136 8,000 48 Climbing Indianapolis Center
Mon 11:59:20 AM 37.6858 -81.6092 197° South 115 132 8,000 49 Level Indianapolis Center
Mon 12:00:21 PM 37.6542 -81.6186 193° South 115 132 8,100 49 Climbing Indianapolis Center
Mon 12:01:23 PM 37.6261 -81.6342 204° Southwest 111 128 8,100 -49 Level Indianapolis Center
Mon 12:02:24 PM 37.5961 -81.6464 198° South 111 128 8,000  Descending Indianapolis Center
Mon 12:03:26 PM 37.5681 -81.6578 198° South 110 127 8,100 48 Climbing Indianapolis Center
Mon 12:04:28 PM 37.5375 -81.6700 198° South 109 125 8,100 -49 Level Indianapolis Center
Mon 12:05:29 PM 37.5017 -81.6833 196° South 111 128 8,000  Descending Indianapolis Center
Mon 12:07:32 PM 37.4433 -81.7189 206° Southwest 115 132 8,100  Climbing Indianapolis Center
Mon 12:08:34 PM 37.4139 -81.7353 204° Southwest 115 132 8,000  Descending Indianapolis Center
Mon 12:09:36 PM 37.3808 -81.7469 196° South 116 133 8,100  Climbing Indianapolis Center
Mon 12:10:37 PM 37.3481 -81.7578 195° South 120 138 8,000  Descending Indianapolis Center
Mon 12:12:40 PM 37.2825 -81.7856 206° Southwest 118 136 8,100  Climbing Indianapolis Center
Mon 12:13:42 PM 37.2506 -81.7936 191° South 117 135 8,000 -48 Descending Indianapolis Center
Mon 12:14:44 PM 37.2197 -81.8058 198° South 117 135 8,000 49 Level Indianapolis Center
Mon 12:15:45 PM 37.1897 -81.8169 196° South 117 135 8,100 49 Climbing Indianapolis Center
Mon 12:16:47 PM 37.1611 -81.8319 203° Southwest 116 133 8,100  Level Indianapolis Center
Mon 12:17:48 PM 37.1317 -81.8442 198° South 115 132 8,100 -49 Level Indianapolis Center
Mon 12:18:50 PM 37.1019 -81.8542 195° South 112 129 8,000 -48 Descending Indianapolis Center
Mon 12:19:52 PM 37.0711 -81.8619 191° South 112 129 8,000 49 Level Indianapolis Center
Mon 12:20:53 PM 37.0378 -81.8764 199° South 111 128 8,100 -49 Climbing Indianapolis Center
Mon 12:21:55 PM 37.0106 -81.8900 202° Southwest 108 124 7,900 -48 Descending Indianapolis Center
Mon 12:22:57 PM 36.9833 -81.9022 200° South 108 124 8,000  Climbing Indianapolis Center
Mon 12:23:58 PM 36.9528 -81.9103 192° South 107 123 7,900  Descending Indianapolis Center
Mon 12:25:00 PM 36.9197 -81.9192 192° South 115 132 8,000 32 Climbing Indianapolis Center
Mon 12:27:03 PM 36.8678 -81.9586 200° South 113 130 8,000 -32 Level Indianapolis Center
Mon 12:28:05 PM 36.8331 -81.9744 200° South 113 130 7,900 -49 Descending Indianapolis Center
Mon 12:29:06 PM 36.8039 -81.9839 195° South 112 129 7,900 49 Level Indianapolis Center
Mon 12:30:08 PM 36.7722 -81.9950 196° South 112 129 8,000  Climbing Indianapolis Center
Mon 12:31:09 PM 36.7403 -82.0053 194° South 113 130 7,900 -98 Descending Indianapolis Center

Login

Don't have an account? Register now (free) for customized features, flight alerts, and more!